Volgo-balt 229 — UHZF — position and weather

sailwx.info

Track history (hours):
 
Tides and Currents Weather Stations Pressure Air Temp Water Temp Dewpoint Dewpoint Depression Visibility Wind Speed Wind Dir Waves Ship Positions

Volgo-balt 229

Last reported at 2014-Nov-18 10:17 UTC. Time now 2014-Nov-21 16:28 UTC.
Position N 55°10' E 018°37'.

Length 113 m; draft 2.8 m.

Type: Ship. MMSI: 273336300.

Date/timePositionNaut miles runAvg speedWind from/ knotsBaromVisibWave heightAir tempDewpointWater temp
2014-Nov-18 10:17N 55°10' E 018°37'103 6.0
2014-Nov-17 17:04N 54°58' E 015°39'12 6.8
2014-Nov-17 15:21N 54°57' E 015°19'6 7.1
2014-Nov-17 14:33N 54°56' E 015°09'7 7.0
2014-Nov-17 13:33N 54°56' E 014°57'7 7.3
2014-Nov-17 12:33N 54°55' E 014°44'7 6.9
2014-Nov-17 11:33N 54°58' E 014°33'7 7.5
2014-Nov-17 10:33N 55°02' E 014°22'51 6.4
2014-Nov-17 02:32N 55°14' E 012°55'5 5.4
2014-Nov-17 01:33N 55°16' E 012°46'5 5.2
2014-Nov-17 00:33N 55°18' E 012°38'5 5.5
2014-Nov-16 23:33N 55°23' E 012°38'7 6.7
2014-Nov-16 22:33N 55°30' E 012°40'6 6.1
2014-Nov-16 21:33N 55°36' E 012°42'6 5.6
2014-Nov-16 20:33N 55°41' E 012°41'6 5.6
2014-Nov-16 19:33N 55°47' E 012°41'6 5.6
2014-Nov-16 18:33N 55°52' E 012°38'6 5.9
2014-Nov-16 17:33N 55°58' E 012°37'5 5.5
2014-Nov-16 16:33N 56°04' E 012°38'3 3.2
2014-Nov-16 15:33N 56°06' E 012°34'3 3.3
2014-Nov-16 14:33N 56°08' E 012°29'5 4.5
2014-Nov-16 13:33N 56°10' E 012°22'5 5.0
2014-Nov-16 12:33N 56°13' E 012°15'4 4.3
2014-Nov-16 11:33N 56°16' E 012°09'4 4.0
2014-Nov-16 10:33N 56°18' E 012°03'92 4.4
2014-Nov-15 13:30N 57°02' E 009°36'  
2014-Nov-11 23:33N 56°28' E 012°08'7 7.4
2014-Nov-11 22:33N 56°22' E 012°16'8 7.7
2014-Nov-11 21:33N 56°15' E 012°23'9 8.5
2014-Nov-11 20:33N 56°08' E 012°32'9 8.5
2014-Nov-11 19:33N 56°01' E 012°41'7 7.4
2014-Nov-11 18:33N 55°54' E 012°45'7 7.3
2014-Nov-11 17:33N 55°47' E 012°43'7 7.4
2014-Nov-11 16:33N 55°40' E 012°42'7 7.4
2014-Nov-11 15:33N 55°33' E 012°43'7 7.3
2014-Nov-11 14:33N 55°25' E 012°42'7 7.0
2014-Nov-11 13:33N 55°18' E 012°43'8 7.6
2014-Nov-11 12:32N 55°16' E 012°56'15 7.5
2014-Nov-11 10:33N 55°15' E 013°22'9 7.4
2014-Nov-11 09:18N 55°15' E 013°39'26 6.8
2014-Nov-11 05:30N 55°19' E 014°23'7 7.2
2014-Nov-11 04:30N 55°25' E 014°31'69 6.9
2014-Nov-10 18:28N 56°00' E 016°16'  
Track history (hours):
 
Tides and Currents Weather Stations Pressure Air Temp Water Temp Dewpoint Dewpoint Depression Visibility Wind Speed Wind Dir Waves Ship Positions

Volgo-balt 229

Last reported at 2014-Nov-18 10:17 UTC. Time now 2014-Nov-21 16:28 UTC.
Position N 55°10' E 018°37'.

Length 113 m; draft 2.8 m.

Type: Ship. MMSI: 273336300.

Date/timePositionNaut miles runAvg speedWind from/ knotsBaromVisibWave heightAir tempDewpointWater temp
2014-Nov-18 10:17N 55°10' E 018°37'103 6.0
2014-Nov-17 17:04N 54°58' E 015°39'12 6.8
2014-Nov-17 15:21N 54°57' E 015°19'6 7.1
2014-Nov-17 14:33N 54°56' E 015°09'7 7.0
2014-Nov-17 13:33N 54°56' E 014°57'7 7.3
2014-Nov-17 12:33N 54°55' E 014°44'7 6.9
2014-Nov-17 11:33N 54°58' E 014°33'7 7.5
2014-Nov-17 10:33N 55°02' E 014°22'51 6.4
2014-Nov-17 02:32N 55°14' E 012°55'5 5.4
2014-Nov-17 01:33N 55°16' E 012°46'5 5.2
2014-Nov-17 00:33N 55°18' E 012°38'5 5.5
2014-Nov-16 23:33N 55°23' E 012°38'7 6.7
2014-Nov-16 22:33N 55°30' E 012°40'6 6.1
2014-Nov-16 21:33N 55°36' E 012°42'6 5.6
2014-Nov-16 20:33N 55°41' E 012°41'6 5.6
2014-Nov-16 19:33N 55°47' E 012°41'6 5.6
2014-Nov-16 18:33N 55°52' E 012°38'6 5.9
2014-Nov-16 17:33N 55°58' E 012°37'5 5.5
2014-Nov-16 16:33N 56°04' E 012°38'3 3.2
2014-Nov-16 15:33N 56°06' E 012°34'3 3.3
2014-Nov-16 14:33N 56°08' E 012°29'5 4.5
2014-Nov-16 13:33N 56°10' E 012°22'5 5.0
2014-Nov-16 12:33N 56°13' E 012°15'4 4.3
2014-Nov-16 11:33N 56°16' E 012°09'4 4.0
2014-Nov-16 10:33N 56°18' E 012°03'92 4.4
2014-Nov-15 13:30N 57°02' E 009°36'  
2014-Nov-11 23:33N 56°28' E 012°08'7 7.4
2014-Nov-11 22:33N 56°22' E 012°16'8 7.7
2014-Nov-11 21:33N 56°15' E 012°23'9 8.5
2014-Nov-11 20:33N 56°08' E 012°32'9 8.5
2014-Nov-11 19:33N 56°01' E 012°41'7 7.4
2014-Nov-11 18:33N 55°54' E 012°45'7 7.3
2014-Nov-11 17:33N 55°47' E 012°43'7 7.4
2014-Nov-11 16:33N 55°40' E 012°42'7 7.4
2014-Nov-11 15:33N 55°33' E 012°43'7 7.3
2014-Nov-11 14:33N 55°25' E 012°42'7 7.0
2014-Nov-11 13:33N 55°18' E 012°43'8 7.6
2014-Nov-11 12:32N 55°16' E 012°56'15 7.5
2014-Nov-11 10:33N 55°15' E 013°22'9 7.4
2014-Nov-11 09:18N 55°15' E 013°39'26 6.8
2014-Nov-11 05:30N 55°19' E 014°23'7 7.2
2014-Nov-11 04:30N 55°25' E 014°31'69 6.9
2014-Nov-10 18:28N 56°00' E 016°16'  

Dump ship's entire track history